createdAt,value
2019-03-21T00:01:15.978Z,53.76
2019-03-21T00:05:20.875Z,53.87
2019-03-21T00:09:25.634Z,53.99
2019-03-21T00:13:30.551Z,54.09
2019-03-21T00:17:38.676Z,54.15
2019-03-21T00:21:43.704Z,54.21
2019-03-21T00:25:48.480Z,54.34
2019-03-21T00:29:53.274Z,54.38
2019-03-21T00:33:58.341Z,54.34
2019-03-21T00:38:03.083Z,54.24
2019-03-21T00:42:07.936Z,54.18
2019-03-21T00:46:12.713Z,54.24
2019-03-21T00:50:18.889Z,54.34
2019-03-21T00:54:23.608Z,54.37
2019-03-21T00:58:28.354Z,54.52
2019-03-21T01:02:33.403Z,54.56
2019-03-21T01:06:38.112Z,54.60
2019-03-21T01:10:43.244Z,54.81
2019-03-21T01:14:48.251Z,55.12
2019-03-21T01:18:53.047Z,55.93
2019-03-21T01:22:58.015Z,55.45
2019-03-21T01:27:02.931Z,55.53
2019-03-21T01:31:08.012Z,55.72
2019-03-21T01:35:12.777Z,55.85
2019-03-21T01:39:17.565Z,55.98
2019-03-21T01:43:22.446Z,56.04
2019-03-21T01:47:27.364Z,56.36
2019-03-21T01:51:32.217Z,56.36
2019-03-21T01:55:37.054Z,56.24
2019-03-21T01:59:41.917Z,56.31
2019-03-21T02:03:47.140Z,56.27
2019-03-21T02:07:51.923Z,56.27
2019-03-21T02:11:56.986Z,56.22
2019-03-21T02:16:01.839Z,56.21
2019-03-21T02:20:07.226Z,56.33
2019-03-21T02:24:12.002Z,56.51
2019-03-21T02:28:16.926Z,56.67
2019-03-21T02:32:21.957Z,57.70
2019-03-21T02:36:26.914Z,56.81
2019-03-21T02:40:31.900Z,56.97
2019-03-21T02:44:36.850Z,57.09
2019-03-21T02:48:41.606Z,57.31
2019-03-21T02:52:47.158Z,57.35
2019-03-21T02:56:52.874Z,57.42
2019-03-21T03:00:57.756Z,57.60
2019-03-21T03:05:02.733Z,57.45
2019-03-21T03:09:09.258Z,57.77
2019-03-21T03:13:14.061Z,57.97
2019-03-21T03:17:18.845Z,58.05
2019-03-21T03:21:23.568Z,58.20
2019-03-21T03:25:28.477Z,58.30
2019-03-21T03:29:33.261Z,58.33
2019-03-21T03:33:38.006Z,58.42
2019-03-21T03:37:43.272Z,58.48
2019-03-21T03:41:48.056Z,58.55
2019-03-21T03:45:53.300Z,58.57
2019-03-21T03:49:58.174Z,58.59
2019-03-21T03:54:02.942Z,58.83
2019-03-21T03:58:09.827Z,59.16
2019-03-21T04:02:14.582Z,59.17
2019-03-21T04:06:19.336Z,59.40
2019-03-21T04:10:26.958Z,59.63
2019-03-21T04:14:31.894Z,59.77
2019-03-21T04:18:36.838Z,59.89
2019-03-21T04:22:41.560Z,59.99
2019-03-21T04:26:46.617Z,60.08
2019-03-21T04:30:51.793Z,60.09
2019-03-21T04:34:56.576Z,60.23
2019-03-21T04:39:01.320Z,60.33
2019-03-21T04:43:06.080Z,60.39
2019-03-21T04:47:10.935Z,60.35
2019-03-21T04:51:15.681Z,60.36
2019-03-21T04:55:20.607Z,60.49
2019-03-21T04:59:25.335Z,60.62
2019-03-21T05:03:30.115Z,60.92
2019-03-21T05:07:34.882Z,60.96
2019-03-21T05:11:39.666Z,60.88
2019-03-21T05:15:44.427Z,60.84
2019-03-21T05:19:49.252Z,60.97
2019-03-21T05:23:54.380Z,61.05
2019-03-21T05:27:59.210Z,61.13
2019-03-21T05:32:04.026Z,61.24
2019-03-21T05:36:08.952Z,61.36
2019-03-21T05:40:15.087Z,61.45
2019-03-21T05:44:33.502Z,61.56
2019-03-21T05:48:38.228Z,61.59
2019-03-21T05:52:43.060Z,61.68
2019-03-21T05:56:47.946Z,61.79
2019-03-21T06:00:52.757Z,61.89
2019-03-21T06:04:57.629Z,61.97
2019-03-21T06:09:02.390Z,62.10
2019-03-21T06:13:08.134Z,62.18
2019-03-21T06:17:12.956Z,62.20
2019-03-21T06:22:03.215Z,62.16
2019-03-21T06:26:45.582Z,62.17
2019-03-21T06:30:50.518Z,62.16
2019-03-21T06:34:55.528Z,62.27
2019-03-21T06:39:00.480Z,62.17
2019-03-21T06:43:05.618Z,62.03
2019-03-21T06:47:10.383Z,62.19
2019-03-21T06:51:15.286Z,62.08
2019-03-21T06:55:20.179Z,62.15
2019-03-21T06:59:24.924Z,62.13
2019-03-21T07:03:29.666Z,62.15
2019-03-21T07:07:34.608Z,61.58
2019-03-21T07:11:39.310Z,61.15
2019-03-21T07:15:44.299Z,61.04
2019-03-21T07:19:49.189Z,60.67
2019-03-21T07:23:53.907Z,60.22
2019-03-21T07:27:58.858Z,60.04
2019-03-21T07:32:03.997Z,59.86
2019-03-21T07:36:08.804Z,59.71
2019-03-21T07:40:14.186Z,59.57
2019-03-21T07:44:19.051Z,59.43
2019-03-21T07:48:23.822Z,58.66
2019-03-21T07:52:28.499Z,58.29
2019-03-21T07:56:33.373Z,57.64
2019-03-21T08:00:38.104Z,57.49
2019-03-21T08:04:42.893Z,56.79
2019-03-21T08:08:48.096Z,56.05
2019-03-21T08:12:52.996Z,55.94
2019-03-21T08:16:57.864Z,55.60
2019-03-21T08:21:02.733Z,54.38
2019-03-21T08:25:08.360Z,54.32
2019-03-21T08:29:13.114Z,53.65
2019-03-21T08:33:17.983Z,53.85
2019-03-21T08:37:22.754Z,53.29
2019-03-21T08:41:27.553Z,52.74
2019-03-21T08:45:32.376Z,52.23
2019-03-21T08:49:37.184Z,52.33
2019-03-21T08:53:41.960Z,51.03
2019-03-21T08:57:46.693Z,52.09
2019-03-21T09:01:51.522Z,51.76
2019-03-21T09:05:56.270Z,50.18
2019-03-21T09:10:01.131Z,49.91
2019-03-21T09:14:06.061Z,49.15
2019-03-21T09:18:10.814Z,49.82
2019-03-21T09:22:16.102Z,49.90
2019-03-21T09:26:21.327Z,49.10
2019-03-21T09:30:26.108Z,48.16
2019-03-21T09:34:30.998Z,48.79
2019-03-21T09:38:35.710Z,47.88
2019-03-21T09:42:40.578Z,47.58
2019-03-21T09:46:50.891Z,47.15
2019-03-21T09:50:51.998Z,45.35
2019-03-21T09:54:56.775Z,44.96
2019-03-21T09:59:01.558Z,43.51
2019-03-21T10:03:07.026Z,46.19
2019-03-21T10:07:12.106Z,45.58
2019-03-21T10:11:16.897Z,44.11
2019-03-21T10:15:21.751Z,45.42
2019-03-21T10:19:26.646Z,44.78
2019-03-21T10:23:31.549Z,45.20
2019-03-21T10:27:36.382Z,42.29
2019-03-21T10:31:41.206Z,43.60
2019-03-21T10:35:46.003Z,41.58
2019-03-21T10:39:50.849Z,42.86
2019-03-21T10:43:55.641Z,43.17
2019-03-21T10:48:00.426Z,41.87
2019-03-21T10:52:05.348Z,43.27
2019-03-21T10:56:10.234Z,42.91
2019-03-21T11:00:15.103Z,40.46
2019-03-21T11:04:19.885Z,43.10
2019-03-21T11:08:24.774Z,42.24
2019-03-21T11:12:29.522Z,42.21
2019-03-21T11:16:34.272Z,39.17
2019-03-21T11:20:40.497Z,40.82
2019-03-21T11:24:45.244Z,40.72
2019-03-21T11:28:50.001Z,39.54
2019-03-21T11:32:54.744Z,40.37
2019-03-21T11:36:59.581Z,40.45
2019-03-21T11:41:04.334Z,40.45
2019-03-21T11:45:09.227Z,39.43
2019-03-21T11:49:14.105Z,39.96
2019-03-21T11:53:18.963Z,39.02
2019-03-21T11:57:23.735Z,39.02
2019-03-21T12:01:28.550Z,38.91
2019-03-21T12:05:33.382Z,37.99
2019-03-21T12:09:38.150Z,37.99
2019-03-21T12:13:43.127Z,38.33
2019-03-21T12:17:47.958Z,35.38
2019-03-21T12:21:52.679Z,37.57
2019-03-21T12:25:57.693Z,35.02
2019-03-21T12:30:02.580Z,33.75
2019-03-21T12:34:07.310Z,36.57
2019-03-21T12:38:12.237Z,34.87
2019-03-21T12:42:17.132Z,33.35
2019-03-21T12:46:21.897Z,33.35
2019-03-21T12:50:26.626Z,33.45
2019-03-21T12:54:31.421Z,36.77
2019-03-21T12:58:36.150Z,35.02
2019-03-21T13:02:43.017Z,37.05
2019-03-21T13:06:47.448Z,36.62
2019-03-21T13:10:52.306Z,36.54
2019-03-21T13:14:57.142Z,36.73
2019-03-21T13:19:02.204Z,36.34
2019-03-21T13:23:07.532Z,37.11
2019-03-21T13:27:12.297Z,36.50
2019-03-21T13:31:17.123Z,36.06
2019-03-21T13:35:32.147Z,35.83
2019-03-21T13:39:28.568Z,35.59
2019-03-21T13:43:33.447Z,34.58
2019-03-21T13:47:38.850Z,33.66
2019-03-21T13:51:43.766Z,34.22
2019-03-21T13:55:48.559Z,35.63
2019-03-21T13:59:53.370Z,35.63
2019-03-21T14:03:58.255Z,34.01
2019-03-21T14:08:03.123Z,35.45
2019-03-21T14:12:07.966Z,35.20
2019-03-21T14:16:12.798Z,34.13
2019-03-21T14:20:17.706Z,35.67
2019-03-21T14:24:22.464Z,34.99
2019-03-21T14:28:27.320Z,34.81
2019-03-21T14:32:32.083Z,32.21
2019-03-21T14:36:36.978Z,34.02
2019-03-21T14:40:42.050Z,34.08
2019-03-21T14:44:47.769Z,33.01
2019-03-21T14:48:52.539Z,33.42
2019-03-21T14:52:57.409Z,34.07
2019-03-21T14:57:02.166Z,31.82
2019-03-21T15:01:06.937Z,33.51
2019-03-21T15:05:11.833Z,33.70
2019-03-21T15:09:16.578Z,34.26
2019-03-21T15:13:21.431Z,34.26
2019-03-21T15:17:26.255Z,33.80
2019-03-21T15:21:30.996Z,33.59
2019-03-21T15:25:35.824Z,33.91
2019-03-21T15:29:40.718Z,33.85
2019-03-21T15:33:45.563Z,33.66
2019-03-21T15:37:50.366Z,33.79
2019-03-21T15:41:55.314Z,33.56
2019-03-21T15:46:00.136Z,33.44
2019-03-21T15:50:05.662Z,33.31
2019-03-21T15:54:10.420Z,33.56
2019-03-21T15:58:15.536Z,33.55
2019-03-21T16:02:20.199Z,33.70
2019-03-21T16:06:25.077Z,33.99
2019-03-21T16:10:30.747Z,33.37
2019-03-21T16:14:35.557Z,33.54
2019-03-21T16:18:40.536Z,34.20
2019-03-21T16:22:45.396Z,34.34
2019-03-21T16:26:50.185Z,34.60
2019-03-21T16:30:54.857Z,34.76
2019-03-21T16:35:00.049Z,34.83
2019-03-21T16:39:06.836Z,34.98
2019-03-21T16:43:11.880Z,35.08
2019-03-21T16:47:16.672Z,35.80
2019-03-21T16:51:21.451Z,35.80
2019-03-21T16:55:27.192Z,36.45
2019-03-21T16:59:31.973Z,38.11
2019-03-21T17:03:37.003Z,39.05
2019-03-21T17:07:42.016Z,37.85
2019-03-21T17:11:46.886Z,38.66
2019-03-21T17:15:51.651Z,39.07
2019-03-21T17:19:56.528Z,37.91
2019-03-21T17:24:01.351Z,37.91
2019-03-21T17:28:06.280Z,38.17
2019-03-21T17:32:11.043Z,38.23
2019-03-21T17:36:15.807Z,38.50
2019-03-21T17:40:20.572Z,38.66
2019-03-21T17:44:25.779Z,38.75
2019-03-21T17:48:30.621Z,38.91
2019-03-21T17:52:35.326Z,39.30
2019-03-21T17:56:40.144Z,39.62
2019-03-21T18:00:45.021Z,40.03
2019-03-21T18:04:49.806Z,40.19
2019-03-21T18:08:54.566Z,40.25
2019-03-21T18:12:59.498Z,40.37
2019-03-21T18:17:04.295Z,40.81
2019-03-21T18:21:09.055Z,41.13
2019-03-21T18:25:14.176Z,41.47
2019-03-21T18:29:18.957Z,41.71
2019-03-21T18:33:23.700Z,41.89
2019-03-21T18:37:28.756Z,42.06
2019-03-21T18:41:33.740Z,42.35
2019-03-21T18:45:38.947Z,42.55
2019-03-21T18:49:44.243Z,42.71
2019-03-21T18:53:49.491Z,42.52
2019-03-21T18:57:54.557Z,42.81
2019-03-21T19:01:59.514Z,43.10
2019-03-21T19:06:05.149Z,43.15
2019-03-21T19:10:10.740Z,43.29
2019-03-21T19:14:16.294Z,43.55
2019-03-21T19:18:21.748Z,43.80
2019-03-21T19:22:27.268Z,44.11
2019-03-21T19:26:33.029Z,44.19
2019-03-21T19:30:38.184Z,44.33
2019-03-21T19:34:43.600Z,44.45
2019-03-21T19:38:48.820Z,44.74
2019-03-21T19:42:54.208Z,44.80
2019-03-21T19:47:01.447Z,44.87
2019-03-21T19:51:06.632Z,45.06
2019-03-21T19:55:12.277Z,44.85
2019-03-21T19:59:17.416Z,44.76
2019-03-21T20:03:22.794Z,44.93
2019-03-21T20:07:28.234Z,44.95
2019-03-21T20:11:33.481Z,45.19
2019-03-21T20:15:38.944Z,45.56
2019-03-21T20:19:44.062Z,45.74
2019-03-21T20:23:49.193Z,46.11
2019-03-21T20:27:54.449Z,46.38
2019-03-21T20:31:59.581Z,46.27
2019-03-21T20:36:04.808Z,46.29
2019-03-21T20:40:13.866Z,47.42
2019-03-21T20:44:19.245Z,48.00
2019-03-21T20:48:31.895Z,48.18
2019-03-21T20:52:37.465Z,48.26
2019-03-21T20:56:42.670Z,48.24
2019-03-21T21:00:47.963Z,48.38
2019-03-21T21:04:53.348Z,48.41
2019-03-21T21:08:58.967Z,48.40
2019-03-21T21:13:04.400Z,48.36
2019-03-21T21:17:10.351Z,48.56
2019-03-21T21:21:15.639Z,48.58
2019-03-21T21:25:21.505Z,48.67
2019-03-21T21:29:26.792Z,48.71
2019-03-21T21:33:32.820Z,48.79
2019-03-21T21:37:44.323Z,48.95
2019-03-21T21:41:49.472Z,49.23
2019-03-21T21:45:54.808Z,49.35
2019-03-21T21:50:00.349Z,49.51
2019-03-21T21:54:05.917Z,49.80
2019-03-21T21:58:26.213Z,49.91
2019-03-21T22:02:19.698Z,49.96
2019-03-21T22:06:25.084Z,50.06
2019-03-21T22:10:30.971Z,50.04
2019-03-21T22:14:36.838Z,50.14
2019-03-21T22:18:42.123Z,50.37
2019-03-21T22:22:48.029Z,50.60
2019-03-21T22:26:56.850Z,50.92
2019-03-21T22:31:39.065Z,51.08
2019-03-21T22:40:37.909Z,51.17
2019-03-21T22:45:19.423Z,51.57
2019-03-21T22:49:52.770Z,51.79
2019-03-21T22:53:59.865Z,51.72
2019-03-21T22:58:31.228Z,51.83
2019-03-21T23:02:36.842Z,52.06
2019-03-21T23:06:52.157Z,52.27
2019-03-21T23:10:57.983Z,52.28
2019-03-21T23:15:03.464Z,52.23
2019-03-21T23:19:10.366Z,52.17
2019-03-21T23:23:16.399Z,52.12
2019-03-21T23:27:22.394Z,52.24
2019-03-21T23:31:27.893Z,52.38
2019-03-21T23:36:11.204Z,52.67
2019-03-21T23:40:44.793Z,53.02
2019-03-21T23:45:02.332Z,53.28
2019-03-21T23:54:31.890Z,53.44
2019-03-21T23:58:43.842Z,53.59
